createdAt,value
2022-09-05T00:00:05.638Z,76.35
2022-09-05T00:02:56.327Z,76.33
2022-09-05T00:06:02.447Z,76.07
2022-09-05T00:08:45.551Z,76.98
2022-09-05T00:11:41.427Z,77.15
2022-09-05T00:15:14.561Z,76.76
2022-09-05T00:17:27.879Z,76.98
2022-09-05T00:24:23.092Z,76.65
2022-09-05T00:24:31.664Z,77.20
2022-09-05T00:26:20.234Z,76.07
2022-09-05T00:28:57.342Z,76.92
2022-09-05T00:31:54.897Z,77.92
2022-09-05T00:34:47.845Z,77.72
2022-09-05T00:37:32.160Z,77.93
2022-09-05T00:40:19.140Z,78.26
2022-09-05T00:42:50.796Z,77.35
2022-09-05T00:45:27.524Z,77.29
2022-09-05T00:48:03.332Z,77.95
2022-09-05T00:50:40.135Z,78.61
2022-09-05T00:53:15.636Z,77.80
2022-09-05T00:55:58.811Z,77.79
2022-09-05T00:58:43.039Z,78.24
2022-09-05T01:01:27.422Z,78.89
2022-09-05T01:04:12.503Z,79.74
2022-09-05T01:06:59.621Z,79.95
2022-09-05T01:09:46.242Z,79.63
2022-09-05T01:12:33.279Z,79.92
2022-09-05T01:15:15.792Z,79.84
2022-09-05T01:18:00.577Z,80.34
2022-09-05T01:20:46.668Z,80.09
2022-09-05T01:23:46.707Z,80.40
2022-09-05T01:26:36.339Z,80.82
2022-09-05T01:29:16.293Z,79.57
2022-09-05T01:32:01.241Z,79.66
2022-09-05T01:34:41.694Z,80.61
2022-09-05T01:37:32.694Z,80.10
2022-09-05T01:40:15.411Z,80.61
2022-09-05T01:42:57.512Z,79.29
2022-09-05T01:45:42.396Z,79.54
2022-09-05T01:48:22.788Z,80.50
2022-09-05T01:50:59.547Z,80.42
2022-09-05T01:53:40.384Z,79.91
2022-09-05T01:56:41.098Z,80.26
2022-09-05T01:59:26.876Z,81.34
2022-09-05T02:02:19.519Z,81.39
2022-09-05T02:05:47.419Z,80.86
2022-09-05T02:08:35.882Z,81.17
2022-09-05T02:11:08.258Z,81.64
2022-09-05T02:14:01.239Z,82.40
2022-09-05T02:16:44.302Z,82.28
2022-09-05T02:19:19.972Z,81.46
2022-09-05T02:21:59.543Z,80.94
2022-09-05T02:24:35.833Z,82.52
2022-09-05T02:27:43.596Z,81.31
2022-09-05T02:30:20.140Z,80.66
2022-09-05T02:33:10.431Z,80.90
2022-09-05T02:35:48.181Z,80.47
2022-09-05T02:40:27.818Z,80.55
2022-09-05T02:45:10.682Z,82.25
2022-09-05T02:45:19.504Z,82.24
2022-09-05T02:47:14.173Z,82.32
2022-09-05T02:52:29.211Z,82.13
2022-09-05T02:57:28.714Z,83.23
2022-09-05T02:57:42.880Z,83.28
2022-09-05T02:59:09.023Z,83.03
2022-09-05T03:01:59.942Z,82.65
2022-09-05T03:04:40.229Z,82.03
2022-09-05T03:07:31.899Z,82.70
2022-09-05T03:10:54.447Z,82.32
2022-09-05T03:13:56.966Z,82.13
2022-09-05T03:16:58.733Z,81.35
2022-09-05T03:20:11.533Z,81.23
2022-09-05T03:23:16.331Z,81.25
2022-09-05T03:26:26.576Z,81.49
2022-09-05T03:29:33.323Z,81.54
2022-09-05T03:32:18.126Z,79.96
2022-09-05T03:35:18.653Z,81.20
2022-09-05T03:38:22.770Z,80.17
2022-09-05T03:41:03.217Z,79.55
2022-09-05T03:44:02.343Z,79.00
2022-09-05T03:46:54.524Z,79.82
2022-09-05T03:53:58.528Z,80.03
2022-09-05T03:57:14.131Z,78.83
2022-09-05T03:57:27.546Z,79.91
2022-09-05T03:59:14.888Z,79.45
2022-09-05T04:03:32.972Z,79.29
2022-09-05T04:08:14.240Z,78.52
2022-09-05T04:08:28.481Z,78.92
2022-09-05T04:10:33.115Z,78.64
2022-09-05T04:13:07.038Z,79.57
2022-09-05T04:15:43.213Z,78.83
2022-09-05T04:18:33.486Z,78.89
2022-09-05T04:21:08.918Z,78.54
2022-09-05T04:23:47.736Z,78.05
2022-09-05T04:26:26.494Z,77.47
2022-09-05T04:29:05.690Z,76.74
2022-09-05T04:31:49.968Z,76.28
2022-09-05T04:34:47.130Z,76.20
2022-09-05T04:37:48.138Z,75.43
2022-09-05T04:40:39.830Z,75.75
2022-09-05T04:43:11.632Z,75.30
2022-09-05T04:45:47.093Z,75.72
2022-09-05T04:48:22.446Z,74.69
2022-09-05T04:51:16.470Z,75.43
2022-09-05T04:54:24.285Z,75.53
2022-09-05T04:57:14.233Z,75.52
2022-09-05T05:03:20.026Z,75.83
2022-09-05T05:06:05.906Z,75.12
2022-09-05T05:06:13.899Z,75.31
2022-09-05T05:08:41.288Z,75.27
2022-09-05T05:17:58.767Z,74.99
2022-09-05T05:17:59.037Z,74.34
2022-09-05T05:18:12.357Z,74.96
2022-09-05T05:20:40.153Z,74.92
2022-09-05T05:23:06.590Z,74.65
2022-09-05T05:25:46.822Z,74.35
2022-09-05T05:28:24.517Z,73.62
2022-09-05T05:31:01.201Z,73.21
2022-09-05T05:33:36.297Z,72.45
2022-09-05T05:36:08.029Z,71.05
2022-09-05T05:38:45.181Z,71.31
2022-09-05T05:41:20.333Z,70.85
2022-09-05T05:43:50.924Z,70.55
2022-09-05T05:46:29.740Z,70.84
2022-09-05T05:49:09.759Z,70.54
2022-09-05T05:52:02.414Z,70.20
2022-09-05T05:54:43.682Z,69.43
2022-09-05T05:57:35.839Z,69.63
2022-09-05T06:00:27.476Z,69.34
2022-09-05T06:03:33.609Z,69.91
2022-09-05T06:06:34.132Z,69.04
2022-09-05T06:14:50.494Z,68.01
2022-09-05T06:15:04.230Z,68.04
2022-09-05T06:16:47.125Z,67.06
2022-09-05T06:19:48.417Z,65.86
2022-09-05T06:22:53.745Z,67.63
2022-09-05T06:26:05.068Z,66.79
2022-09-05T06:28:52.192Z,66.54
2022-09-05T06:31:38.906Z,66.72
2022-09-05T06:34:32.735Z,66.05
2022-09-05T06:37:11.371Z,64.42
2022-09-05T06:39:58.614Z,65.19
2022-09-05T06:42:43.666Z,65.96
2022-09-05T06:45:38.963Z,64.82
2022-09-05T06:48:24.894Z,65.21
2022-09-05T06:51:29.499Z,65.09
2022-09-05T06:54:21.603Z,63.95
2022-09-05T06:57:04.594Z,63.54
2022-09-05T07:00:21.852Z,63.09
2022-09-05T07:03:13.564Z,63.15
2022-09-05T07:05:50.447Z,63.46
2022-09-05T07:08:35.681Z,62.94
2022-09-05T07:11:15.893Z,62.13
2022-09-05T07:13:57.830Z,62.51
2022-09-05T07:16:38.896Z,62.74
2022-09-05T07:19:24.418Z,62.68
2022-09-05T07:22:46.022Z,61.16
2022-09-05T07:25:05.931Z,60.63
2022-09-05T07:27:41.840Z,59.54
2022-09-05T07:30:29.835Z,61.76
2022-09-05T07:33:01.388Z,61.81
2022-09-05T07:35:34.733Z,62.27
2022-09-05T07:38:16.301Z,62.19
2022-09-05T07:40:52.615Z,61.41
2022-09-05T07:43:24.591Z,60.39
2022-09-05T07:46:06.585Z,60.11
2022-09-05T07:48:38.739Z,59.22
2022-09-05T07:56:47.952Z,59.51
2022-09-05T07:56:49.872Z,58.88
2022-09-05T07:57:25.588Z,58.41
2022-09-05T07:59:47.607Z,57.92
2022-09-05T08:02:15.962Z,57.00
2022-09-05T08:04:44.592Z,56.49
2022-09-05T08:07:47.490Z,56.62
2022-09-05T08:10:15.661Z,54.96
2022-09-05T08:13:24.529Z,56.06
2022-09-05T08:16:09.673Z,57.52
2022-09-05T08:18:37.184Z,56.71
2022-09-05T08:21:11.231Z,55.86
2022-09-05T08:23:56.299Z,55.05
2022-09-05T08:26:35.765Z,55.48
2022-09-05T08:29:11.703Z,54.74
2022-09-05T08:31:45.155Z,54.54
2022-09-05T08:34:27.742Z,55.09
2022-09-05T08:37:11.140Z,54.44
2022-09-05T08:39:42.851Z,53.58
2022-09-05T08:42:28.808Z,53.70
2022-09-05T08:46:40.603Z,54.10
2022-09-05T08:48:16.683Z,54.34
2022-09-05T08:51:03.591Z,53.63
2022-09-05T08:53:55.343Z,54.46
2022-09-05T08:56:26.402Z,54.25
2022-09-05T08:59:31.582Z,53.46
2022-09-05T09:02:45.396Z,53.78
2022-09-05T09:05:14.663Z,53.05
2022-09-05T09:07:51.557Z,53.58
2022-09-05T09:10:42.277Z,51.62
2022-09-05T09:13:35.898Z,52.66
2022-09-05T09:16:11.013Z,51.62
2022-09-05T09:19:03.482Z,51.51
2022-09-05T09:21:41.286Z,51.43
2022-09-05T09:24:23.914Z,51.34
2022-09-05T09:26:58.279Z,51.62
2022-09-05T09:29:28.121Z,52.23
2022-09-05T09:32:07.209Z,51.79
2022-09-05T09:34:47.336Z,51.54
2022-09-05T09:38:02.877Z,50.78
2022-09-05T09:41:02.379Z,51.28
2022-09-05T09:44:07.895Z,51.18
2022-09-05T09:46:43.562Z,51.19
2022-09-05T09:49:32.840Z,51.46
2022-09-05T09:52:41.409Z,50.86
2022-09-05T09:55:56.635Z,49.43
2022-09-05T09:58:51.395Z,50.91
2022-09-05T10:01:36.552Z,50.06
2022-09-05T10:10:33.791Z,47.36
2022-09-05T10:10:58.571Z,47.64
2022-09-05T10:14:50.806Z,46.69
2022-09-05T10:18:09.879Z,45.72
2022-09-05T10:21:16.919Z,46.40
2022-09-05T10:24:25.189Z,45.96
2022-09-05T10:27:34.532Z,46.28
2022-09-05T10:30:13.811Z,46.22
2022-09-05T10:35:08.619Z,45.15
2022-09-05T10:36:02.570Z,44.13
2022-09-05T10:38:40.711Z,45.03
2022-09-05T10:41:22.274Z,45.28
2022-09-05T10:43:57.266Z,44.07
2022-09-05T10:46:50.147Z,44.63
2022-09-05T10:49:26.928Z,44.50
2022-09-05T10:52:17.928Z,44.39
2022-09-05T10:55:15.221Z,44.46
2022-09-05T10:57:58.001Z,43.68
2022-09-05T11:02:20.877Z,43.23
2022-09-05T11:03:47.203Z,43.03
2022-09-05T11:06:20.886Z,42.50
2022-09-05T11:09:07.424Z,41.04
2022-09-05T11:11:46.164Z,42.02
2022-09-05T11:14:34.917Z,41.73
2022-09-05T11:17:13.389Z,41.33
2022-09-05T11:19:44.926Z,40.97
2022-09-05T11:22:22.716Z,40.57
2022-09-05T11:24:56.869Z,40.45
2022-09-05T11:27:33.345Z,40.67
2022-09-05T11:30:06.793Z,39.90
2022-09-05T11:37:38.471Z,39.95
2022-09-05T11:40:08.284Z,39.40
2022-09-05T11:40:08.822Z,40.19
2022-09-05T11:42:38.590Z,39.69
2022-09-05T11:45:40.265Z,39.24
2022-09-05T11:48:38.465Z,39.46
2022-09-05T11:51:59.433Z,39.39
2022-09-05T11:55:09.814Z,38.86
2022-09-05T11:58:25.182Z,39.00
2022-09-05T12:01:42.681Z,39.47
2022-09-05T12:04:08.664Z,39.22
2022-09-05T12:07:26.322Z,40.98
2022-09-05T12:10:43.536Z,40.20
2022-09-05T12:13:17.471Z,40.41
2022-09-05T12:16:07.791Z,41.02
2022-09-05T12:18:45.826Z,40.82
2022-09-05T12:21:31.718Z,41.43
2022-09-05T12:24:54.551Z,40.67
2022-09-05T12:27:38.757Z,39.35
2022-09-05T12:29:59.925Z,40.27
2022-09-05T12:36:03.951Z,39.90
2022-09-05T12:40:27.559Z,40.87
2022-09-05T12:41:44.997Z,40.28
2022-09-05T12:42:09.640Z,40.55
2022-09-05T12:44:42.713Z,40.36
2022-09-05T12:47:19.431Z,39.70
2022-09-05T12:50:03.218Z,41.02
2022-09-05T12:52:44.828Z,39.85
2022-09-05T12:55:24.198Z,40.09
2022-09-05T13:02:27.794Z,40.91
2022-09-05T13:03:06.578Z,40.86
2022-09-05T13:04:16.775Z,41.01
2022-09-05T13:06:44.755Z,41.03
2022-09-05T13:09:22.365Z,40.67
2022-09-05T13:14:48.893Z,39.91
2022-09-05T13:15:14.160Z,39.67
2022-09-05T13:17:51.865Z,39.90
2022-09-05T13:20:34.310Z,39.20
2022-09-05T13:23:08.877Z,38.79
2022-09-05T13:25:38.101Z,39.74
2022-09-05T13:28:10.640Z,40.23
2022-09-05T13:38:11.574Z,41.01
2022-09-05T13:38:13.700Z,40.01
2022-09-05T13:38:15.757Z,39.99
2022-09-05T13:39:39.941Z,40.36
2022-09-05T13:42:18.592Z,40.92
2022-09-05T13:44:52.593Z,41.97
2022-09-05T13:48:02.413Z,42.24
2022-09-05T13:50:35.230Z,41.68
2022-09-05T13:53:15.572Z,41.43
2022-09-05T13:55:46.701Z,41.53
2022-09-05T13:58:22.622Z,41.65
2022-09-05T14:01:35.412Z,41.39
2022-09-05T14:08:12.387Z,42.31
2022-09-05T14:11:00.520Z,41.74
2022-09-05T14:13:39.937Z,42.17
2022-09-05T14:16:15.017Z,42.29
2022-09-05T14:19:00.891Z,42.05
2022-09-05T14:21:33.203Z,42.43
2022-09-05T14:24:11.124Z,41.58
2022-09-05T14:26:46.619Z,41.41
2022-09-05T14:29:20.342Z,41.10
2022-09-05T14:37:35.800Z,41.65
2022-09-05T14:37:43.958Z,41.24
2022-09-05T14:38:07.845Z,40.36
2022-09-05T14:41:47.120Z,40.54
2022-09-05T14:44:50.325Z,40.00
2022-09-05T14:47:43.201Z,39.94
2022-09-05T14:50:27.936Z,39.73
2022-09-05T14:55:58.737Z,40.12
2022-09-05T15:02:47.895Z,39.33
2022-09-05T15:02:54.897Z,39.52
2022-09-05T15:04:44.433Z,39.51
2022-09-05T15:07:22.235Z,39.60
2022-09-05T15:12:20.839Z,38.68
2022-09-05T15:13:01.089Z,38.43
2022-09-05T15:15:31.721Z,38.64
2022-09-05T15:18:06.921Z,38.77
2022-09-05T15:20:38.494Z,39.69
2022-09-05T15:23:16.229Z,39.51
2022-09-05T15:25:48.223Z,38.27
2022-09-05T15:28:21.218Z,38.82
2022-09-05T15:31:10.458Z,39.37
2022-09-05T15:33:44.130Z,39.76
2022-09-05T15:36:14.411Z,41.00
2022-09-05T15:38:54.837Z,39.20
2022-09-05T15:41:26.176Z,39.82
2022-09-05T15:44:04.463Z,40.48
2022-09-05T15:46:47.697Z,39.80
2022-09-05T15:49:29.333Z,40.13
2022-09-05T15:51:59.551Z,40.79
2022-09-05T15:54:37.763Z,40.81
2022-09-05T15:57:17.697Z,41.03
2022-09-05T15:59:50.061Z,41.23
2022-09-05T16:02:25.592Z,41.68
2022-09-05T16:10:34.449Z,41.30
2022-09-05T16:10:46.271Z,41.57
2022-09-05T16:11:23.898Z,41.95
2022-09-05T16:13:53.211Z,42.22
2022-09-05T16:22:49.754Z,40.31
2022-09-05T16:23:16.667Z,40.66
2022-09-05T16:23:24.296Z,40.66
2022-09-05T16:25:06.230Z,40.71
2022-09-05T16:27:53.804Z,40.77
2022-09-05T16:30:24.821Z,40.90
2022-09-05T16:32:59.634Z,41.40
2022-09-05T16:35:28.344Z,41.51
2022-09-05T16:38:07.865Z,41.29
2022-09-05T16:40:39.278Z,41.67
2022-09-05T16:43:11.479Z,42.24
2022-09-05T16:45:47.931Z,42.14
2022-09-05T16:48:35.570Z,42.56
2022-09-05T16:51:15.421Z,41.86
2022-09-05T16:53:58.356Z,42.29
2022-09-05T16:56:34.466Z,43.12
2022-09-05T16:59:07.987Z,43.02
2022-09-05T17:02:00.562Z,42.43
2022-09-05T17:05:05.166Z,42.94
2022-09-05T17:07:52.246Z,43.08
2022-09-05T17:10:26.935Z,43.15
2022-09-05T17:12:56.161Z,42.95
2022-09-05T17:15:28.214Z,43.48
2022-09-05T17:18:21.768Z,43.71
2022-09-05T17:20:54.839Z,43.23
2022-09-05T17:28:34.646Z,43.31
2022-09-05T17:29:42.136Z,42.95
2022-09-05T17:32:48.299Z,44.20
2022-09-05T17:35:42.680Z,43.86
2022-09-05T17:38:38.831Z,44.46
2022-09-05T17:41:34.445Z,44.29
2022-09-05T17:44:10.613Z,44.35
2022-09-05T17:46:49.425Z,45.58
2022-09-05T17:49:43.023Z,45.38
2022-09-05T17:52:20.879Z,45.30
2022-09-05T17:54:52.375Z,45.48
2022-09-05T17:57:45.320Z,45.11
2022-09-05T18:01:04.529Z,45.92
2022-09-05T18:04:17.128Z,45.70
2022-09-05T18:06:59.251Z,46.00
2022-09-05T18:10:11.881Z,46.99
2022-09-05T18:13:13.802Z,47.30
2022-09-05T18:16:11.947Z,48.76
2022-09-05T18:21:48.516Z,48.53
2022-09-05T18:27:30.891Z,48.76
2022-09-05T18:30:27.664Z,48.49
2022-09-05T18:33:53.626Z,49.00
2022-09-05T18:36:32.197Z,49.41
2022-09-05T18:39:37.681Z,49.54
2022-09-05T18:42:25.846Z,49.08
2022-09-05T18:45:01.821Z,49.44
2022-09-05T18:47:50.961Z,49.81
2022-09-05T18:50:27.880Z,50.27
2022-09-05T18:53:09.615Z,51.22
2022-09-05T18:56:12.398Z,51.22
2022-09-05T18:58:35.538Z,51.21
2022-09-05T19:01:28.307Z,50.64
2022-09-05T19:04:00.838Z,50.94
2022-09-05T19:06:37.954Z,51.71
2022-09-05T19:09:09.854Z,51.50
2022-09-05T19:11:53.577Z,52.19
2022-09-05T19:14:35.166Z,51.29
2022-09-05T19:17:09.176Z,52.28
2022-09-05T19:20:33.739Z,52.36
2022-09-05T19:25:43.912Z,53.59
2022-09-05T19:36:20.813Z,54.44
2022-09-05T19:37:06.390Z,54.37
2022-09-05T19:37:12.157Z,54.02
2022-09-05T19:45:38.079Z,53.80
2022-09-05T19:47:48.901Z,54.14
2022-09-05T19:47:51.481Z,54.22
2022-09-05T19:48:26.138Z,53.61
2022-09-05T19:50:56.298Z,53.18
2022-09-05T19:53:26.495Z,54.20
2022-09-05T19:55:55.144Z,53.60
2022-09-05T19:58:25.915Z,53.71
2022-09-05T20:01:06.396Z,53.12
2022-09-05T20:03:39.270Z,53.71
2022-09-05T20:06:29.057Z,53.49
2022-09-05T20:09:11.664Z,53.95
2022-09-05T20:11:46.404Z,54.27
2022-09-05T20:14:20.292Z,55.31
2022-09-05T20:16:50.030Z,55.29
2022-09-05T20:19:32.931Z,55.47
2022-09-05T20:22:10.058Z,55.52
2022-09-05T20:24:56.073Z,56.28
2022-09-05T20:27:28.063Z,56.62
2022-09-05T20:29:59.092Z,57.24
2022-09-05T20:32:39.316Z,57.09
2022-09-05T20:38:19.088Z,57.09
2022-09-05T20:43:19.663Z,58.69
2022-09-05T20:43:25.122Z,59.09
2022-09-05T20:43:57.452Z,58.77
2022-09-05T20:48:29.611Z,59.25
2022-09-05T20:54:09.013Z,60.39
2022-09-05T20:54:14.295Z,61.04
2022-09-05T20:55:39.465Z,60.65
2022-09-05T20:58:13.829Z,62.01
2022-09-05T21:01:15.348Z,61.39
2022-09-05T21:03:38.670Z,61.70
2022-09-05T21:06:29.768Z,61.99
2022-09-05T21:09:24.530Z,62.40
2022-09-05T21:11:54.431Z,63.01
2022-09-05T21:14:25.496Z,63.49
2022-09-05T21:16:59.820Z,64.18
2022-09-05T21:19:31.247Z,64.82
2022-09-05T21:22:04.300Z,65.09
2022-09-05T21:24:32.577Z,64.01
2022-09-05T21:27:17.286Z,64.44
2022-09-05T21:29:53.016Z,64.20
2022-09-05T21:32:36.230Z,64.73
2022-09-05T21:35:33.531Z,65.25
2022-09-05T21:38:01.625Z,65.17
2022-09-05T21:40:29.878Z,64.81
2022-09-05T21:47:34.566Z,65.98
2022-09-05T21:47:43.336Z,65.88
2022-09-05T21:48:41.727Z,67.75
2022-09-05T21:51:13.311Z,68.78
2022-09-05T21:59:21.535Z,68.08
2022-09-05T21:59:29.385Z,68.02
2022-09-05T21:59:40.057Z,68.16
2022-09-05T22:02:17.347Z,68.42
2022-09-05T22:04:47.191Z,68.39
2022-09-05T22:07:20.267Z,69.49
2022-09-05T22:10:01.022Z,69.99
2022-09-05T22:12:33.693Z,70.71
2022-09-05T22:15:11.708Z,71.63
2022-09-05T22:18:00.981Z,72.19
2022-09-05T22:20:44.125Z,72.43
2022-09-05T22:23:12.652Z,72.19
2022-09-05T22:25:41.025Z,72.17
2022-09-05T22:28:14.660Z,72.45
2022-09-05T22:30:43.457Z,71.99
2022-09-05T22:33:13.187Z,71.68
2022-09-05T22:35:41.894Z,72.93
2022-09-05T22:38:16.470Z,73.79
2022-09-05T22:40:48.025Z,74.25
2022-09-05T22:43:17.469Z,74.83
2022-09-05T22:45:45.496Z,74.72
2022-09-05T22:48:16.035Z,74.45
2022-09-05T22:50:44.225Z,75.01
2022-09-05T22:53:12.422Z,75.38
2022-09-05T22:55:42.434Z,75.64
2022-09-05T22:58:12.616Z,74.94
2022-09-05T23:00:41.451Z,74.50
2022-09-05T23:03:09.779Z,73.70
2022-09-05T23:05:39.324Z,74.18
2022-09-05T23:08:07.759Z,75.52
2022-09-05T23:10:37.625Z,75.73
2022-09-05T23:13:06.820Z,76.85
2022-09-05T23:15:35.729Z,77.39
2022-09-05T23:18:06.159Z,78.67
2022-09-05T23:20:35.140Z,77.92
2022-09-05T23:23:07.158Z,76.85
2022-09-05T23:25:36.637Z,77.07
2022-09-05T23:28:07.164Z,77.44
2022-09-05T23:30:36.038Z,77.16
2022-09-05T23:33:07.380Z,78.75
2022-09-05T23:35:35.612Z,79.02
2022-09-05T23:38:09.953Z,78.44
2022-09-05T23:40:38.571Z,78.49
2022-09-05T23:43:06.967Z,78.75
2022-09-05T23:45:35.483Z,78.51
2022-09-05T23:48:04.196Z,79.46
2022-09-05T23:50:32.724Z,79.52
2022-09-05T23:53:05.411Z,78.79
2022-09-05T23:55:33.661Z,78.59
2022-09-05T23:58:02.014Z,77.54
